sensor_id;sensor_type;location;lat;lon;timestamp;P1;durP1;ratioP1;P2;durP2;ratioP2
45466;SDS011;31212;49.734;8.490;2023-07-29T02:00:57;2.22;;;1.20;;
45466;SDS011;31212;49.734;8.490;2023-07-29T02:03:23;1.33;;;1.17;;
45466;SDS011;31212;49.734;8.490;2023-07-29T02:15:02;4.47;;;1.52;;
45466;SDS011;31212;49.734;8.490;2023-07-29T04:39:17;2.28;;;1.55;;
45466;SDS011;31212;49.734;8.490;2023-07-29T04:41:43;3.33;;;1.83;;
45466;SDS011;31212;49.734;8.490;2023-07-29T04:44:10;2.90;;;1.88;;
45466;SDS011;31212;49.734;8.490;2023-07-29T04:46:36;4.43;;;2.03;;
45466;SDS011;31212;49.734;8.490;2023-07-29T04:49:03;3.45;;;2.33;;
45466;SDS011;31212;49.734;8.490;2023-07-29T04:51:30;2.67;;;1.50;;
45466;SDS011;31212;49.734;8.490;2023-07-29T04:53:57;2.58;;;1.73;;
45466;SDS011;31212;49.734;8.490;2023-07-29T04:56:26;2.88;;;2.00;;
45466;SDS011;31212;49.734;8.490;2023-07-29T04:58:52;3.72;;;1.92;;
45466;SDS011;31212;49.734;8.490;2023-07-29T05:01:19;1.83;;;1.50;;
45466;SDS011;31212;49.734;8.490;2023-07-29T05:03:45;1.80;;;1.33;;
45466;SDS011;31212;49.734;8.490;2023-07-29T05:06:12;2.00;;;1.40;;
45466;SDS011;31212;49.734;8.490;2023-07-29T05:08:38;2.45;;;1.70;;
45466;SDS011;31212;49.734;8.490;2023-07-29T05:11:05;2.33;;;1.63;;
45466;SDS011;31212;49.734;8.490;2023-07-29T05:13:33;2.97;;;1.90;;
45466;SDS011;31212;49.734;8.490;2023-07-29T05:15:59;2.58;;;1.63;;
45466;SDS011;31212;49.734;8.490;2023-07-29T05:18:26;3.38;;;2.20;;
45466;SDS011;31212;49.734;8.490;2023-07-29T05:20:53;3.20;;;1.67;;
45466;SDS011;31212;49.734;8.490;2023-07-29T05:23:19;6.43;;;1.98;;
45466;SDS011;31212;49.734;8.490;2023-07-29T05:25:46;8.77;;;2.00;;
45466;SDS011;31212;49.734;8.490;2023-07-29T05:28:12;2.72;;;1.83;;
45466;SDS011;31212;49.734;8.490;2023-07-29T05:30:40;5.97;;;1.90;;
45466;SDS011;31212;49.734;8.490;2023-07-29T05:33:06;3.47;;;1.70;;
45466;SDS011;31212;49.734;8.490;2023-07-29T05:35:33;2.92;;;1.30;;
45466;SDS011;31212;49.734;8.490;2023-07-29T05:38:00;2.70;;;1.75;;
45466;SDS011;31212;49.734;8.490;2023-07-29T05:40:28;3.03;;;1.88;;
45466;SDS011;31212;49.734;8.490;2023-07-29T05:42:55;4.43;;;2.20;;
45466;SDS011;31212;49.734;8.490;2023-07-29T05:45:23;2.72;;;1.75;;
45466;SDS011;31212;49.734;8.490;2023-07-29T05:47:51;5.35;;;1.65;;
45466;SDS011;31212;49.734;8.490;2023-07-29T05:50:19;7.68;;;2.15;;
45466;SDS011;31212;49.734;8.490;2023-07-29T05:52:46;3.33;;;1.80;;
45466;SDS011;31212;49.734;8.490;2023-07-29T05:55:12;5.20;;;2.03;;
45466;SDS011;31212;49.734;8.490;2023-07-29T05:57:39;3.20;;;2.33;;
45466;SDS011;31212;49.734;8.490;2023-07-29T06:00:07;3.55;;;2.08;;
45466;SDS011;31212;49.734;8.490;2023-07-29T06:02:40;3.42;;;2.15;;
45466;SDS011;31212;49.734;8.490;2023-07-29T06:05:11;3.70;;;2.45;;
45466;SDS011;31212;49.734;8.490;2023-07-29T06:07:37;3.75;;;2.40;;
45466;SDS011;31212;49.734;8.490;2023-07-29T06:10:09;3.72;;;2.17;;
45466;SDS011;31212;49.734;8.490;2023-07-29T06:12:37;2.92;;;2.10;;
45466;SDS011;31212;49.734;8.490;2023-07-29T06:15:04;2.97;;;1.60;;
45466;SDS011;31212;49.734;8.490;2023-07-29T06:17:31;4.45;;;2.30;;
45466;SDS011;31212;49.734;8.490;2023-07-29T06:19:57;4.72;;;2.08;;
45466;SDS011;31212;49.734;8.490;2023-07-29T06:22:26;2.75;;;1.85;;
45466;SDS011;31212;49.734;8.490;2023-07-29T06:24:52;7.25;;;2.25;;
45466;SDS011;31212;49.734;8.490;2023-07-29T06:27:19;8.75;;;2.20;;
45466;SDS011;31212;49.734;8.490;2023-07-29T06:29:45;2.53;;;2.00;;
45466;SDS011;31212;49.734;8.490;2023-07-29T06:32:12;4.20;;;2.00;;
45466;SDS011;31212;49.734;8.490;2023-07-29T06:34:38;4.60;;;1.73;;
45466;SDS011;31212;49.734;8.490;2023-07-29T06:37:05;4.93;;;1.90;;
45466;SDS011;31212;49.734;8.490;2023-07-29T06:39:33;5.00;;;2.25;;
45466;SDS011;31212;49.734;8.490;2023-07-29T06:41:59;3.78;;;2.10;;
45466;SDS011;31212;49.734;8.490;2023-07-29T06:44:27;6.50;;;2.13;;
45466;SDS011;31212;49.734;8.490;2023-07-29T06:46:53;5.85;;;2.30;;
45466;SDS011;31212;49.734;8.490;2023-07-29T06:49:20;10.60;;;3.13;;
45466;SDS011;31212;49.734;8.490;2023-07-29T06:51:46;8.30;;;3.85;;
45466;SDS011;31212;49.734;8.490;2023-07-29T06:54:12;10.00;;;4.32;;
45466;SDS011;31212;49.734;8.490;2023-07-29T06:56:40;6.00;;;4.07;;
45466;SDS011;31212;49.734;8.490;2023-07-29T06:59:07;6.75;;;3.67;;
45466;SDS011;31212;49.734;8.490;2023-07-29T07:01:33;7.70;;;3.83;;
45466;SDS011;31212;49.734;8.490;2023-07-29T07:04:00;6.00;;;2.70;;
45466;SDS011;31212;49.734;8.490;2023-07-29T07:06:26;4.10;;;2.75;;
45466;SDS011;31212;49.734;8.490;2023-07-29T07:08:53;5.25;;;2.45;;
45466;SDS011;31212;49.734;8.490;2023-07-29T07:11:19;3.50;;;2.70;;
45466;SDS011;31212;49.734;8.490;2023-07-29T07:13:47;1.35;;;1.08;;
45466;SDS011;31212;49.734;8.490;2023-07-29T07:16:14;2.67;;;0.77;;
45466;SDS011;31212;49.734;8.490;2023-07-29T07:18:40;1.77;;;0.80;;
45466;SDS011;31212;49.734;8.490;2023-07-29T07:21:07;3.05;;;1.00;;
45466;SDS011;31212;49.734;8.490;2023-07-29T07:23:33;5.03;;;2.03;;
45466;SDS011;31212;49.734;8.490;2023-07-29T07:26:00;2.28;;;1.30;;
45466;SDS011;31212;49.734;8.490;2023-07-29T07:28:26;3.83;;;1.67;;
45466;SDS011;31212;49.734;8.490;2023-07-29T07:30:54;1.75;;;1.42;;
45466;SDS011;31212;49.734;8.490;2023-07-29T07:33:21;1.70;;;1.08;;
45466;SDS011;31212;49.734;8.490;2023-07-29T07:35:47;1.58;;;1.23;;
45466;SDS011;31212;49.734;8.490;2023-07-29T07:38:14;1.58;;;1.00;;
45466;SDS011;31212;49.734;8.490;2023-07-29T07:40:40;1.65;;;0.90;;
45466;SDS011;31212;49.734;8.490;2023-07-29T07:43:07;4.63;;;1.00;;
45466;SDS011;31212;49.734;8.490;2023-07-29T07:45:33;6.70;;;1.73;;
45466;SDS011;31212;49.734;8.490;2023-07-29T07:48:01;2.05;;;1.05;;
45466;SDS011;31212;49.734;8.490;2023-07-29T07:50:29;4.40;;;1.05;;
45466;SDS011;31212;49.734;8.490;2023-07-29T07:52:55;2.88;;;1.40;;
45466;SDS011;31212;49.734;8.490;2023-07-29T07:55:22;2.30;;;1.33;;
45466;SDS011;31212;49.734;8.490;2023-07-29T07:57:48;1.63;;;1.33;;
45466;SDS011;31212;49.734;8.490;2023-07-29T08:00:15;1.75;;;1.38;;
45466;SDS011;31212;49.734;8.490;2023-07-29T08:02:43;2.03;;;1.48;;
45466;SDS011;31212;49.734;8.490;2023-07-29T08:05:11;3.03;;;2.03;;
45466;SDS011;31212;49.734;8.490;2023-07-29T08:07:38;3.90;;;2.28;;
45466;SDS011;31212;49.734;8.490;2023-07-29T08:10:05;2.80;;;2.20;;
45466;SDS011;31212;49.734;8.490;2023-07-29T08:12:32;4.60;;;2.75;;
45466;SDS011;31212;49.734;8.490;2023-07-29T08:14:58;3.10;;;2.20;;
45466;SDS011;31212;49.734;8.490;2023-07-29T08:17:25;4.15;;;2.28;;
45466;SDS011;31212;49.734;8.490;2023-07-29T08:19:51;2.67;;;1.42;;
45466;SDS011;31212;49.734;8.490;2023-07-29T08:22:19;5.57;;;1.33;;
45466;SDS011;31212;49.734;8.490;2023-07-29T08:24:46;2.30;;;1.13;;
45466;SDS011;31212;49.734;8.490;2023-07-29T08:27:12;1.88;;;1.20;;
45466;SDS011;31212;49.734;8.490;2023-07-29T08:29:39;1.35;;;0.73;;
45466;SDS011;31212;49.734;8.490;2023-07-29T08:32:05;1.17;;;0.73;;
45466;SDS011;31212;49.734;8.490;2023-07-29T08:34:32;1.10;;;0.60;;
45466;SDS011;31212;49.734;8.490;2023-07-29T08:36:58;2.22;;;0.65;;
45466;SDS011;31212;49.734;8.490;2023-07-29T08:39:26;0.25;;;0.25;;
45466;SDS011;31212;49.734;8.490;2023-07-29T08:41:55;0.30;;;0.30;;
45466;SDS011;31212;49.734;8.490;2023-07-29T08:44:29;1.13;;;0.50;;
45466;SDS011;31212;49.734;8.490;2023-07-29T08:47:01;0.30;;;0.30;;
45466;SDS011;31212;49.734;8.490;2023-07-29T08:49:27;0.75;;;0.50;;
45466;SDS011;31212;49.734;8.490;2023-07-29T08:51:56;0.60;;;0.40;;
45466;SDS011;31212;49.734;8.490;2023-07-29T08:54:23;1.05;;;0.50;;
45466;SDS011;31212;49.734;8.490;2023-07-29T08:56:51;0.93;;;0.50;;
45466;SDS011;31212;49.734;8.490;2023-07-29T08:59:18;0.82;;;0.50;;
45466;SDS011;31212;49.734;8.490;2023-07-29T09:01:46;2.42;;;0.60;;
45466;SDS011;31212;49.734;8.490;2023-07-29T09:04:13;0.70;;;0.63;;
45466;SDS011;31212;49.734;8.490;2023-07-29T09:06:39;0.57;;;0.45;;
45466;SDS011;31212;49.734;8.490;2023-07-29T09:09:09;1.38;;;0.50;;
45466;SDS011;31212;49.734;8.490;2023-07-29T09:11:35;1.13;;;0.60;;
45466;SDS011;31212;49.734;8.490;2023-07-29T09:14:03;0.73;;;0.45;;
45466;SDS011;31212;49.734;8.490;2023-07-29T09:16:30;0.60;;;0.40;;
45466;SDS011;31212;49.734;8.490;2023-07-29T09:18:58;0.88;;;0.45;;
45466;SDS011;31212;49.734;8.490;2023-07-29T09:21:27;1.52;;;0.90;;
45466;SDS011;31212;49.734;8.490;2023-07-29T09:23:55;0.73;;;0.50;;
45466;SDS011;31212;49.734;8.490;2023-07-29T09:26:22;1.23;;;0.80;;
45466;SDS011;31212;49.734;8.490;2023-07-29T09:28:51;1.23;;;0.60;;
45466;SDS011;31212;49.734;8.490;2023-07-29T09:31:22;0.57;;;0.57;;
45466;SDS011;31212;49.734;8.490;2023-07-29T09:33:49;0.95;;;0.68;;
45466;SDS011;31212;49.734;8.490;2023-07-29T09:36:21;0.95;;;0.50;;
45466;SDS011;31212;49.734;8.490;2023-07-29T09:38:48;2.15;;;0.80;;
45466;SDS011;31212;49.734;8.490;2023-07-29T09:41:18;1.48;;;0.75;;
45466;SDS011;31212;49.734;8.490;2023-07-29T09:43:44;1.20;;;0.95;;
45466;SDS011;31212;49.734;8.490;2023-07-29T09:46:11;3.13;;;0.70;;
45466;SDS011;31212;49.734;8.490;2023-07-29T09:48:38;1.63;;;0.70;;
45466;SDS011;31212;49.734;8.490;2023-07-29T09:51:10;2.67;;;0.70;;
45466;SDS011;31212;49.734;8.490;2023-07-29T09:53:42;1.40;;;0.85;;
45466;SDS011;31212;49.734;8.490;2023-07-29T09:56:09;0.82;;;0.50;;
45466;SDS011;31212;49.734;8.490;2023-07-29T09:58:36;2.13;;;0.88;;
45466;SDS011;31212;49.734;8.490;2023-07-29T10:01:03;0.95;;;0.60;;
45466;SDS011;31212;49.734;8.490;2023-07-29T10:03:30;0.88;;;0.70;;
45466;SDS011;31212;49.734;8.490;2023-07-29T10:06:00;0.80;;;0.60;;
45466;SDS011;31212;49.734;8.490;2023-07-29T10:08:28;1.42;;;0.70;;
45466;SDS011;31212;49.734;8.490;2023-07-29T10:10:56;1.17;;;0.50;;
45466;SDS011;31212;49.734;8.490;2023-07-29T10:13:25;0.73;;;0.52;;
45466;SDS011;31212;49.734;8.490;2023-07-29T10:15:52;1.20;;;0.75;;
45466;SDS011;31212;49.734;8.490;2023-07-29T10:18:19;1.30;;;0.80;;
45466;SDS011;31212;49.734;8.490;2023-07-29T10:20:47;2.38;;;0.80;;
45466;SDS011;31212;49.734;8.490;2023-07-29T10:23:17;0.80;;;0.60;;
45466;SDS011;31212;49.734;8.490;2023-07-29T10:25:46;0.98;;;0.82;;
45466;SDS011;31212;49.734;8.490;2023-07-29T10:28:16;5.43;;;1.10;;
45466;SDS011;31212;49.734;8.490;2023-07-29T10:30:46;3.20;;;1.13;;
45466;SDS011;31212;49.734;8.490;2023-07-29T10:33:12;1.92;;;1.30;;
45466;SDS011;31212;49.734;8.490;2023-07-29T10:35:40;1.02;;;0.80;;
45466;SDS011;31212;49.734;8.490;2023-07-29T10:38:07;1.55;;;1.10;;
45466;SDS011;31212;49.734;8.490;2023-07-29T10:40:45;0.70;;;0.63;;
45466;SDS011;31212;49.734;8.490;2023-07-29T10:43:14;1.00;;;0.70;;
45466;SDS011;31212;49.734;8.490;2023-07-29T10:45:45;1.65;;;0.80;;
45466;SDS011;31212;49.734;8.490;2023-07-29T10:48:12;1.08;;;0.93;;
45466;SDS011;31212;49.734;8.490;2023-07-29T10:53:58;1.67;;;0.98;;
45466;SDS011;31212;49.734;8.490;2023-07-29T10:56:29;1.45;;;1.00;;
45466;SDS011;31212;49.734;8.490;2023-07-29T10:58:58;2.33;;;1.05;;
45466;SDS011;31212;49.734;8.490;2023-07-29T11:01:29;0.93;;;0.70;;
45466;SDS011;31212;49.734;8.490;2023-07-29T11:09:51;1.80;;;1.05;;
45466;SDS011;31212;49.734;8.490;2023-07-29T11:12:40;2.75;;;1.13;;
45466;SDS011;31212;49.734;8.490;2023-07-29T11:15:14;2.72;;;0.68;;
45466;SDS011;31212;49.734;8.490;2023-07-29T11:17:42;2.72;;;1.67;;
45466;SDS011;31212;49.734;8.490;2023-07-29T11:20:11;0.70;;;0.70;;
45466;SDS011;31212;49.734;8.490;2023-07-29T11:22:38;6.07;;;0.80;;
45466;SDS011;31212;49.734;8.490;2023-07-29T11:25:06;1.63;;;1.10;;
45466;SDS011;31212;49.734;8.490;2023-07-29T11:27:34;1.42;;;1.30;;
45466;SDS011;31212;49.734;8.490;2023-07-29T11:30:03;4.38;;;1.00;;
45466;SDS011;31212;49.734;8.490;2023-07-29T11:32:31;1.15;;;0.93;;
45466;SDS011;31212;49.734;8.490;2023-07-29T11:35:01;1.33;;;1.05;;
45466;SDS011;31212;49.734;8.490;2023-07-29T11:37:28;3.10;;;1.23;;
45466;SDS011;31212;49.734;8.490;2023-07-29T11:39:55;1.27;;;0.90;;
45466;SDS011;31212;49.734;8.490;2023-07-29T11:42:21;3.17;;;1.35;;
45466;SDS011;31212;49.734;8.490;2023-07-29T11:44:48;1.60;;;1.08;;
45466;SDS011;31212;49.734;8.490;2023-07-29T11:47:16;1.73;;;1.08;;
45466;SDS011;31212;49.734;8.490;2023-07-29T11:49:42;1.90;;;1.00;;
45466;SDS011;31212;49.734;8.490;2023-07-29T11:52:09;1.75;;;1.00;;
45466;SDS011;31212;49.734;8.490;2023-07-29T11:54:37;1.48;;;0.80;;
45466;SDS011;31212;49.734;8.490;2023-07-29T11:57:05;1.05;;;0.70;;
45466;SDS011;31212;49.734;8.490;2023-07-29T11:59:33;1.63;;;0.80;;
45466;SDS011;31212;49.734;8.490;2023-07-29T12:02:00;1.02;;;0.60;;
45466;SDS011;31212;49.734;8.490;2023-07-29T12:04:28;3.50;;;0.95;;
45466;SDS011;31212;49.734;8.490;2023-07-29T12:06:55;1.13;;;0.90;;
45466;SDS011;31212;49.734;8.490;2023-07-29T12:09:22;1.90;;;0.70;;
45466;SDS011;31212;49.734;8.490;2023-07-29T12:11:49;1.05;;;0.73;;
45466;SDS011;31212;49.734;8.490;2023-07-29T12:14:17;2.90;;;1.10;;
45466;SDS011;31212;49.734;8.490;2023-07-29T12:16:44;1.60;;;0.93;;
45466;SDS011;31212;49.734;8.490;2023-07-29T12:19:11;1.52;;;1.13;;
45466;SDS011;31212;49.734;8.490;2023-07-29T12:21:41;2.30;;;1.00;;
45466;SDS011;31212;49.734;8.490;2023-07-29T12:24:08;1.27;;;0.93;;
45466;SDS011;31212;49.734;8.490;2023-07-29T12:26:35;1.17;;;0.80;;
45466;SDS011;31212;49.734;8.490;2023-07-29T12:29:10;1.10;;;1.00;;
45466;SDS011;31212;49.734;8.490;2023-07-29T12:31:37;10.80;;;1.40;;
45466;SDS011;31212;49.734;8.490;2023-07-29T12:34:04;1.75;;;0.93;;
45466;SDS011;31212;49.734;8.490;2023-07-29T12:36:41;1.05;;;0.90;;
45466;SDS011;31212;49.734;8.490;2023-07-29T12:39:15;1.50;;;1.00;;
45466;SDS011;31212;49.734;8.490;2023-07-29T12:41:42;1.85;;;1.20;;
45466;SDS011;31212;49.734;8.490;2023-07-29T12:44:09;2.42;;;0.80;;
45466;SDS011;31212;49.734;8.490;2023-07-29T12:46:35;1.45;;;0.88;;
45466;SDS011;31212;49.734;8.490;2023-07-29T12:49:02;2.83;;;0.90;;
45466;SDS011;31212;49.734;8.490;2023-07-29T12:51:28;1.55;;;1.00;;
45466;SDS011;31212;49.734;8.490;2023-07-29T12:53:56;1.33;;;0.90;;
45466;SDS011;31212;49.734;8.490;2023-07-29T12:56:23;1.13;;;0.65;;
45466;SDS011;31212;49.734;8.490;2023-07-29T12:58:49;0.80;;;0.70;;
45466;SDS011;31212;49.734;8.490;2023-07-29T13:01:16;1.75;;;0.93;;
45466;SDS011;31212;49.734;8.490;2023-07-29T13:03:42;1.63;;;1.00;;
45466;SDS011;31212;49.734;8.490;2023-07-29T13:06:09;1.83;;;0.75;;
45466;SDS011;31212;49.734;8.490;2023-07-29T13:08:35;1.20;;;0.85;;
45466;SDS011;31212;49.734;8.490;2023-07-29T13:11:04;0.88;;;0.70;;
45466;SDS011;31212;49.734;8.490;2023-07-29T13:13:31;1.33;;;0.82;;
45466;SDS011;31212;49.734;8.490;2023-07-29T13:15:58;1.10;;;0.90;;
45466;SDS011;31212;49.734;8.490;2023-07-29T13:18:24;0.95;;;0.85;;
45466;SDS011;31212;49.734;8.490;2023-07-29T13:20:51;2.17;;;1.42;;
45466;SDS011;31212;49.734;8.490;2023-07-29T13:23:17;0.77;;;0.60;;
45466;SDS011;31212;49.734;8.490;2023-07-29T13:25:44;1.63;;;0.73;;
45466;SDS011;31212;49.734;8.490;2023-07-29T13:28:12;1.30;;;0.70;;
45466;SDS011;31212;49.734;8.490;2023-07-29T13:30:38;1.17;;;0.65;;
45466;SDS011;31212;49.734;8.490;2023-07-29T13:33:05;1.20;;;0.95;;
45466;SDS011;31212;49.734;8.490;2023-07-29T13:35:32;2.85;;;0.98;;
45466;SDS011;31212;49.734;8.490;2023-07-29T13:37:59;0.95;;;0.80;;
45466;SDS011;31212;49.734;8.490;2023-07-29T13:40:25;2.33;;;0.73;;
45466;SDS011;31212;49.734;8.490;2023-07-29T13:42:52;1.08;;;0.57;;
45466;SDS011;31212;49.734;8.490;2023-07-29T13:45:21;2.08;;;0.73;;
45466;SDS011;31212;49.734;8.490;2023-07-29T13:47:48;3.33;;;0.95;;
45466;SDS011;31212;49.734;8.490;2023-07-29T13:50:15;1.67;;;0.88;;
45466;SDS011;31212;49.734;8.490;2023-07-29T13:52:42;1.13;;;0.77;;
45466;SDS011;31212;49.734;8.490;2023-07-29T13:55:08;0.93;;;0.80;;
45466;SDS011;31212;49.734;8.490;2023-07-29T13:57:36;0.73;;;0.70;;
45466;SDS011;31212;49.734;8.490;2023-07-29T14:00:04;0.93;;;0.77;;
45466;SDS011;31212;49.734;8.490;2023-07-29T14:02:37;0.73;;;0.70;;
45466;SDS011;31212;49.734;8.490;2023-07-29T14:05:04;3.67;;;0.93;;
45466;SDS011;31212;49.734;8.490;2023-07-29T14:07:32;1.00;;;0.80;;
45466;SDS011;31212;49.734;8.490;2023-07-29T14:09:58;1.02;;;0.77;;
45466;SDS011;31212;49.734;8.490;2023-07-29T14:12:25;1.05;;;0.50;;
45466;SDS011;31212;49.734;8.490;2023-07-29T14:14:51;0.80;;;0.75;;
45466;SDS011;31212;49.734;8.490;2023-07-29T14:17:18;1.25;;;0.80;;
45466;SDS011;31212;49.734;8.490;2023-07-29T14:19:46;3.55;;;0.80;;
45466;SDS011;31212;49.734;8.490;2023-07-29T14:22:12;0.60;;;0.60;;
45466;SDS011;31212;49.734;8.490;2023-07-29T14:24:39;1.08;;;0.77;;
45466;SDS011;31212;49.734;8.490;2023-07-29T14:27:05;1.45;;;0.88;;
45466;SDS011;31212;49.734;8.490;2023-07-29T14:29:32;1.23;;;0.80;;
45466;SDS011;31212;49.734;8.490;2023-07-29T14:31:58;2.17;;;1.15;;
45466;SDS011;31212;49.734;8.490;2023-07-29T14:34:25;0.88;;;0.80;;
45466;SDS011;31212;49.734;8.490;2023-07-29T14:36:53;1.33;;;0.90;;
45466;SDS011;31212;49.734;8.490;2023-07-29T14:39:19;0.88;;;0.60;;
45466;SDS011;31212;49.734;8.490;2023-07-29T14:41:45;1.35;;;0.80;;
45466;SDS011;31212;49.734;8.490;2023-07-29T14:44:12;1.52;;;0.82;;
45466;SDS011;31212;49.734;8.490;2023-07-29T14:46:38;3.05;;;1.02;;
45466;SDS011;31212;49.734;8.490;2023-07-29T14:49:05;2.60;;;1.00;;
45466;SDS011;31212;49.734;8.490;2023-07-29T14:51:31;1.60;;;1.10;;
45466;SDS011;31212;49.734;8.490;2023-07-29T14:53:59;3.70;;;0.85;;
45466;SDS011;31212;49.734;8.490;2023-07-29T14:56:26;1.77;;;0.95;;
45466;SDS011;31212;49.734;8.490;2023-07-29T14:58:52;5.22;;;1.38;;
45466;SDS011;31212;49.734;8.490;2023-07-29T15:01:19;1.15;;;0.93;;
45466;SDS011;31212;49.734;8.490;2023-07-29T15:03:45;1.27;;;0.80;;
45466;SDS011;31212;49.734;8.490;2023-07-29T15:06:11;1.23;;;1.02;;
45466;SDS011;31212;49.734;8.490;2023-07-29T15:08:38;2.95;;;1.70;;
45466;SDS011;31212;49.734;8.490;2023-07-29T15:11:06;1.52;;;1.02;;
45466;SDS011;31212;49.734;8.490;2023-07-29T15:13:32;2.88;;;1.10;;
45466;SDS011;31212;49.734;8.490;2023-07-29T15:15:59;2.70;;;1.10;;
45466;SDS011;31212;49.734;8.490;2023-07-29T15:18:25;5.18;;;0.77;;
45466;SDS011;31212;49.734;8.490;2023-07-29T15:20:55;1.58;;;1.00;;
45466;SDS011;31212;49.734;8.490;2023-07-29T15:23:21;1.13;;;0.90;;
45466;SDS011;31212;49.734;8.490;2023-07-29T15:25:48;0.93;;;0.80;;
45466;SDS011;31212;49.734;8.490;2023-07-29T15:28:16;4.88;;;0.82;;
45466;SDS011;31212;49.734;8.490;2023-07-29T15:30:42;1.83;;;0.88;;
45466;SDS011;31212;49.734;8.490;2023-07-29T15:33:09;1.48;;;0.90;;
45466;SDS011;31212;49.734;8.490;2023-07-29T15:35:36;1.48;;;0.90;;
45466;SDS011;31212;49.734;8.490;2023-07-29T15:38:04;2.70;;;1.20;;
45466;SDS011;31212;49.734;8.490;2023-07-29T15:40:30;2.88;;;0.98;;
45466;SDS011;31212;49.734;8.490;2023-07-29T15:42:57;1.25;;;0.63;;
45466;SDS011;31212;49.734;8.490;2023-07-29T15:45:25;2.70;;;1.15;;
45466;SDS011;31212;49.734;8.490;2023-07-29T15:47:51;2.42;;;1.38;;
45466;SDS011;31212;49.734;8.490;2023-07-29T15:50:18;1.42;;;0.82;;
45466;SDS011;31212;49.734;8.490;2023-07-29T15:52:44;0.93;;;0.77;;
45466;SDS011;31212;49.734;8.490;2023-07-29T15:55:11;2.78;;;1.35;;
45466;SDS011;31212;49.734;8.490;2023-07-29T15:57:37;1.35;;;0.88;;
45466;SDS011;31212;49.734;8.490;2023-07-29T16:00:04;1.63;;;0.95;;
45466;SDS011;31212;49.734;8.490;2023-07-29T16:02:40;2.72;;;1.00;;
45466;SDS011;31212;49.734;8.490;2023-07-29T16:05:07;1.13;;;0.93;;
45466;SDS011;31212;49.734;8.490;2023-07-29T16:07:33;1.90;;;1.50;;
45466;SDS011;31212;49.734;8.490;2023-07-29T16:10:00;2.65;;;0.98;;
45466;SDS011;31212;49.734;8.490;2023-07-29T16:12:26;1.52;;;0.98;;
45466;SDS011;31212;49.734;8.490;2023-07-29T16:14:53;1.63;;;0.90;;
45466;SDS011;31212;49.734;8.490;2023-07-29T16:17:20;2.72;;;1.00;;
45466;SDS011;31212;49.734;8.490;2023-07-29T16:19:55;1.33;;;1.00;;
45466;SDS011;31212;49.734;8.490;2023-07-29T16:22:22;1.55;;;0.98;;
45466;SDS011;31212;49.734;8.490;2023-07-29T16:24:49;1.50;;;0.95;;
45466;SDS011;31212;49.734;8.490;2023-07-29T16:27:16;1.25;;;0.88;;
45466;SDS011;31212;49.734;8.490;2023-07-29T16:29:42;0.93;;;0.70;;
45466;SDS011;31212;49.734;8.490;2023-07-29T16:32:09;1.48;;;1.05;;
45466;SDS011;31212;49.734;8.490;2023-07-29T16:34:36;3.38;;;1.17;;
45466;SDS011;31212;49.734;8.490;2023-07-29T16:37:04;1.67;;;0.77;;
45466;SDS011;31212;49.734;8.490;2023-07-29T16:39:31;1.75;;;1.10;;
45466;SDS011;31212;49.734;8.490;2023-07-29T16:41:57;2.42;;;1.00;;
45466;SDS011;31212;49.734;8.490;2023-07-29T16:44:24;1.20;;;0.93;;
45466;SDS011;31212;49.734;8.490;2023-07-29T16:46:50;3.35;;;1.15;;
45466;SDS011;31212;49.734;8.490;2023-07-29T16:49:17;1.00;;;0.80;;
45466;SDS011;31212;49.734;8.490;2023-07-29T16:51:45;1.50;;;0.90;;
45466;SDS011;31212;49.734;8.490;2023-07-29T16:54:12;1.30;;;0.98;;
45466;SDS011;31212;49.734;8.490;2023-07-29T16:56:42;1.55;;;0.98;;
45466;SDS011;31212;49.734;8.490;2023-07-29T16:59:09;1.38;;;0.90;;
45466;SDS011;31212;49.734;8.490;2023-07-29T17:01:35;2.08;;;1.30;;
45466;SDS011;31212;49.734;8.490;2023-07-29T17:04:02;1.25;;;0.88;;
45466;SDS011;31212;49.734;8.490;2023-07-29T17:06:28;2.22;;;1.00;;
45466;SDS011;31212;49.734;8.490;2023-07-29T17:08:55;1.17;;;0.70;;
45466;SDS011;31212;49.734;8.490;2023-07-29T17:11:23;1.20;;;0.93;;
45466;SDS011;31212;49.734;8.490;2023-07-29T17:13:49;3.33;;;1.10;;
45466;SDS011;31212;49.734;8.490;2023-07-29T17:16:16;2.50;;;1.02;;
45466;SDS011;31212;49.734;8.490;2023-07-29T17:18:42;2.17;;;0.95;;
45466;SDS011;31212;49.734;8.490;2023-07-29T17:21:09;2.05;;;1.02;;
45466;SDS011;31212;49.734;8.490;2023-07-29T17:23:35;2.55;;;1.10;;
45466;SDS011;31212;49.734;8.490;2023-07-29T17:26:02;1.63;;;0.95;;
45466;SDS011;31212;49.734;8.490;2023-07-29T17:28:30;3.80;;;1.10;;
45466;SDS011;31212;49.734;8.490;2023-07-29T17:30:57;2.10;;;1.17;;
45466;SDS011;31212;49.734;8.490;2023-07-29T17:33:23;2.50;;;0.95;;
45466;SDS011;31212;49.734;8.490;2023-07-29T17:35:50;1.80;;;1.23;;
45466;SDS011;31212;49.734;8.490;2023-07-29T17:38:16;1.50;;;0.88;;
45466;SDS011;31212;49.734;8.490;2023-07-29T17:40:43;2.85;;;1.20;;
45466;SDS011;31212;49.734;8.490;2023-07-29T17:43:09;3.00;;;1.00;;
45466;SDS011;31212;49.734;8.490;2023-07-29T17:45:36;2.47;;;1.10;;
45466;SDS011;31212;49.734;8.490;2023-07-29T17:48:03;2.08;;;1.42;;
45466;SDS011;31212;49.734;8.490;2023-07-29T17:50:29;1.88;;;0.90;;
45466;SDS011;31212;49.734;8.490;2023-07-29T17:52:58;1.42;;;1.00;;
45466;SDS011;31212;49.734;8.490;2023-07-29T17:55:24;1.33;;;0.90;;
45466;SDS011;31212;49.734;8.490;2023-07-29T17:57:51;1.08;;;0.90;;
45466;SDS011;31212;49.734;8.490;2023-07-29T18:00:17;1.40;;;1.00;;
45466;SDS011;31212;49.734;8.490;2023-07-29T18:02:45;2.35;;;0.90;;
45466;SDS011;31212;49.734;8.490;2023-07-29T18:05:11;1.42;;;0.80;;
45466;SDS011;31212;49.734;8.490;2023-07-29T18:07:38;1.73;;;1.02;;
45466;SDS011;31212;49.734;8.490;2023-07-29T18:10:04;3.63;;;1.30;;
45466;SDS011;31212;49.734;8.490;2023-07-29T18:12:31;2.30;;;1.38;;
45466;SDS011;31212;49.734;8.490;2023-07-29T18:14:59;3.97;;;1.27;;
45466;SDS011;31212;49.734;8.490;2023-07-29T18:17:25;2.15;;;1.25;;
45466;SDS011;31212;49.734;8.490;2023-07-29T18:19:53;2.75;;;1.38;;
45466;SDS011;31212;49.734;8.490;2023-07-29T18:22:20;2.13;;;1.30;;
45466;SDS011;31212;49.734;8.490;2023-07-29T18:24:46;2.17;;;1.42;;
45466;SDS011;31212;49.734;8.490;2023-07-29T18:27:12;1.85;;;1.25;;
45466;SDS011;31212;49.734;8.490;2023-07-29T18:29:39;2.03;;;1.27;;
45466;SDS011;31212;49.734;8.490;2023-07-29T18:32:06;4.13;;;1.48;;
45466;SDS011;31212;49.734;8.490;2023-07-29T18:34:33;2.05;;;1.27;;
45466;SDS011;31212;49.734;8.490;2023-07-29T18:37:01;1.10;;;0.93;;
45466;SDS011;31212;49.734;8.490;2023-07-29T18:39:28;1.88;;;1.35;;
45466;SDS011;31212;49.734;8.490;2023-07-29T18:41:55;2.33;;;1.40;;
45466;SDS011;31212;49.734;8.490;2023-07-29T18:44:21;1.38;;;1.27;;
45466;SDS011;31212;49.734;8.490;2023-07-29T18:46:48;2.05;;;1.20;;
45466;SDS011;31212;49.734;8.490;2023-07-29T18:49:14;1.88;;;1.23;;
45466;SDS011;31212;49.734;8.490;2023-07-29T18:51:41;4.63;;;1.48;;
45466;SDS011;31212;49.734;8.490;2023-07-29T18:54:09;2.80;;;1.35;;
45466;SDS011;31212;49.734;8.490;2023-07-29T18:56:35;1.52;;;1.13;;
45466;SDS011;31212;49.734;8.490;2023-07-29T18:59:02;3.97;;;1.52;;
45466;SDS011;31212;49.734;8.490;2023-07-29T19:01:28;3.90;;;2.25;;
45466;SDS011;31212;49.734;8.490;2023-07-29T19:03:55;1.65;;;1.38;;
45466;SDS011;31212;49.734;8.490;2023-07-29T19:06:21;2.92;;;1.48;;
45466;SDS011;31212;49.734;8.490;2023-07-29T19:08:48;2.92;;;1.75;;
45466;SDS011;31212;49.734;8.490;2023-07-29T19:11:16;2.20;;;1.13;;
45466;SDS011;31212;49.734;8.490;2023-07-29T19:13:43;2.65;;;1.55;;
45466;SDS011;31212;49.734;8.490;2023-07-29T19:16:09;3.72;;;1.55;;
45466;SDS011;31212;49.734;8.490;2023-07-29T19:18:36;2.85;;;1.38;;
45466;SDS011;31212;49.734;8.490;2023-07-29T19:21:02;4.15;;;1.45;;
45466;SDS011;31212;49.734;8.490;2023-07-29T19:23:29;2.92;;;1.35;;
45466;SDS011;31212;49.734;8.490;2023-07-29T19:25:55;2.80;;;1.58;;
45466;SDS011;31212;49.734;8.490;2023-07-29T19:28:23;1.83;;;1.48;;